TimeAST,TemperatureF,Dew PointF,Humidity,Sea Level PressureIn,VisibilityMPH,Wind Direction,Wind SpeedMPH,Gust SpeedMPH,PrecipitationIn,Events,Conditions,WindDirDegrees,DateUTC
12:00 AM,75.2,62.6,65,30.01,6.2,NE,6.9,-,N/A,,Partly Cloudy,40,2013-01-14 04:00:00
1:00 AM,73.4,62.6,69,30.01,6.2,ENE,4.6,-,N/A,,Partly Cloudy,70,2013-01-14 05:00:00
2:00 AM,73,63,63,30.01,25,ENE,8.1,,,,Mostly Cloudy,60,2013-01-14 06:00:00
2:00 AM,73.4,62.6,69,30.01,6.2,ENE,8.1,-,N/A,,Mostly Cloudy,60,2013-01-14 06:00:00
3:00 AM,73.4,64.4,73,29.98,6.2,East,4.6,-,N/A,,Scattered Clouds,80,2013-01-14 07:00:00
4:00 AM,75.2,62.6,65,29.98,6.2,NE,9.2,-,N/A,,Scattered Clouds,50,2013-01-14 08:00:00
5:00 AM,75,62,55,29.99,25,NE,10.4,,,,Partly Cloudy,50,2013-01-14 09:00:00
5:00 AM,75.2,62.6,65,29.98,6.2,NE,10.4,-,N/A,,Partly Cloudy,50,2013-01-14 09:00:00
6:00 AM,73.4,62.6,69,29.98,6.2,East,6.9,-,N/A,,Partly Cloudy,90,2013-01-14 10:00:00
7:00 AM,73.4,62.6,69,30.01,6.2,ENE,9.2,-,N/A,,Partly Cloudy,60,2013-01-14 11:00:00
8:00 AM,77,61,48,30.05,34,ENE,6.9,,,,Partly Cloudy,60,2013-01-14 12:00:00
8:00 AM,77.0,60.8,57,30.04,6.2,ENE,6.9,-,N/A,,Partly Cloudy,60,2013-01-14 12:00:00
9:00 AM,78.8,60.8,54,30.04,6.2,NE,11.5,-,N/A,,Partly Cloudy,50,2013-01-14 13:00:00
10:00 AM,80.6,62.6,54,30.04,6.2,NE,11.5,-,N/A,,Partly Cloudy,50,2013-01-14 14:00:00
11:00 AM,80,64,50,30.04,40,NE,9.2,,,,Scattered Clouds,40,2013-01-14 15:00:00
11:00 AM,80.6,64.4,58,30.04,6.2,NE,9.2,-,N/A,,Partly Cloudy,40,2013-01-14 15:00:00
12:00 PM,80.6,60.8,51,30.01,6.2,East,9.2,-,N/A,,Partly Cloudy,90,2013-01-14 16:00:00
1:00 PM,80.6,62.6,54,29.98,6.2,ENE,10.4,-,N/A,,Partly Cloudy,70,2013-01-14 17:00:00
2:00 PM,80,63,47,29.99,40,East,11.5,,,,Partly Cloudy,80,2013-01-14 18:00:00
2:00 PM,78.8,62.6,57,29.98,6.2,East,9.2,-,N/A,,Scattered Clouds,80,2013-01-14 18:00:00
3:00 PM,80.6,59.0,48,29.98,6.2,ENE,10.4,-,N/A,,Partly Cloudy,60,2013-01-14 19:00:00
4:00 PM,80.6,62.6,54,29.98,6.2,NE,10.4,-,N/A,,Partly Cloudy,50,2013-01-14 20:00:00
5:00 PM,79,62,46,30.01,44,East,12.7,,,,Scattered Clouds,90,2013-01-14 21:00:00
5:00 PM,78.8,62.6,57,30.01,6.2,ENE,12.7,-,N/A,,Partly Cloudy,70,2013-01-14 21:00:00
6:00 PM,77.0,62.6,61,30.01,6.2,ENE,11.5,-,N/A,,Partly Cloudy,70,2013-01-14 22:00:00
7:00 PM,75.2,64.4,69,30.01,6.2,ENE,8.1,-,N/A,,Partly Cloudy,70,2013-01-14 23:00:00
8:00 PM,76,63,56,30.03,37,ENE,8.1,,,,Scattered Clouds,70,2013-01-15 00:00:00
8:00 PM,75.2,62.6,65,30.01,6.2,ENE,8.1,-,N/A,,Partly Cloudy,70,2013-01-15 00:00:00
9:00 PM,75.2,62.6,65,30.01,6.2,ENE,9.2,-,N/A,,Partly Cloudy,70,2013-01-15 01:00:00
10:00 PM,75.2,66.2,73,30.01,6.2,ENE,9.2,-,N/A,,Partly Cloudy,70,2013-01-15 02:00:00
11:00 PM,74,65,67,30.03,37,East,11.5,,,Rain,Light Rain Showers,80,2013-01-15 03:00:00
11:00 PM,75.2,64.4,69,30.01,6.2,ENE,11.5,-,N/A,,Partly Cloudy,70,2013-01-15 03:00:00